createdAt,value
2018-04-12T00:01:43.506Z,9.00
2018-04-12T00:04:11.932Z,9.00
2018-04-12T00:06:40.359Z,8.90
2018-04-12T00:09:08.844Z,8.90
2018-04-12T00:11:36.914Z,8.50
2018-04-12T00:14:05.021Z,8.90
2018-04-12T00:16:32.723Z,8.70
2018-04-12T00:19:00.827Z,9.40
2018-04-12T00:21:28.448Z,8.80
2018-04-12T00:23:56.135Z,9.00
2018-04-12T00:26:24.191Z,8.90
2018-04-12T00:28:52.250Z,9.00
2018-04-12T00:31:19.888Z,9.10
2018-04-12T00:33:48.765Z,9.20
2018-04-12T00:36:16.440Z,8.60
2018-04-12T00:38:44.892Z,9.30
2018-04-12T00:41:13.340Z,9.30
2018-04-12T00:43:41.024Z,9.20
2018-04-12T00:46:09.511Z,9.40
2018-04-12T00:48:37.203Z,9.60
2018-04-12T00:51:06.460Z,9.40
2018-04-12T00:53:45.858Z,9.00
2018-04-12T00:56:37.535Z,9.40
2018-04-12T00:59:05.948Z,9.50
2018-04-12T01:01:34.028Z,9.50
2018-04-12T01:04:02.436Z,9.60
2018-04-12T01:06:30.141Z,9.50
2018-04-12T01:08:58.179Z,9.60
2018-04-12T01:11:25.858Z,9.50
2018-04-12T01:13:53.957Z,9.60
2018-04-12T01:16:22.408Z,9.60
2018-04-12T01:18:50.094Z,9.50
2018-04-12T01:21:17.787Z,9.50
2018-04-12T01:23:46.176Z,9.50
2018-04-12T01:26:14.599Z,9.50
2018-04-12T01:28:42.310Z,9.10
2018-04-12T01:31:10.393Z,9.60
2018-04-12T01:33:38.424Z,9.60
2018-04-12T01:36:06.078Z,9.40
2018-04-12T01:38:33.708Z,10.00
2018-04-12T01:41:01.365Z,9.50
2018-04-12T01:43:29.043Z,9.40
2018-04-12T01:45:57.512Z,9.70
2018-04-12T01:48:25.927Z,9.70
2018-04-12T01:50:53.624Z,9.80
2018-04-12T01:53:22.390Z,9.60
2018-04-12T01:55:50.019Z,10.00
2018-04-12T01:58:17.672Z,9.50
2018-04-12T02:00:45.306Z,9.90
2018-04-12T02:03:13.703Z,9.50
2018-04-12T02:05:41.334Z,9.60
2018-04-12T02:08:09.734Z,9.70
2018-04-12T02:10:37.441Z,9.70
2018-04-12T02:13:05.127Z,10.00
2018-04-12T02:15:33.578Z,9.70
2018-04-12T02:18:01.249Z,9.70
2018-04-12T02:20:29.367Z,9.50
2018-04-12T02:22:57.410Z,9.70
2018-04-12T02:25:25.858Z,9.70
2018-04-12T02:27:54.251Z,9.70
2018-04-12T02:30:22.343Z,9.80
2018-04-12T02:32:50.731Z,9.70
2018-04-12T02:35:19.920Z,9.70
2018-04-12T02:37:48.375Z,9.70
2018-04-12T02:40:16.395Z,9.70
2018-04-12T02:42:44.101Z,9.70
2018-04-12T02:45:12.487Z,9.60
2018-04-12T02:47:40.162Z,9.40
2018-04-12T02:50:08.278Z,9.50
2018-04-12T02:52:36.347Z,9.40
2018-04-12T02:55:04.742Z,9.30
2018-04-12T02:57:32.432Z,9.00
2018-04-12T03:00:00.863Z,9.30
2018-04-12T03:02:28.526Z,9.30
2018-04-12T03:04:56.155Z,9.30
2018-04-12T03:07:23.793Z,9.20
2018-04-12T03:09:51.449Z,9.10
2018-04-12T03:12:19.929Z,9.10
2018-04-12T03:14:48.012Z,9.60
2018-04-12T03:17:16.698Z,9.10
2018-04-12T03:19:45.509Z,9.10
2018-04-12T03:22:13.226Z,9.30
2018-04-12T03:24:40.951Z,8.70
2018-04-12T03:27:09.395Z,9.00
2018-04-12T03:29:37.831Z,9.00
2018-04-12T03:32:05.878Z,8.80
2018-04-12T03:34:34.271Z,8.90
2018-04-12T03:37:03.839Z,8.90
2018-04-12T03:39:31.471Z,8.60
2018-04-12T03:41:59.176Z,8.80
2018-04-12T03:44:26.887Z,9.40
2018-04-12T03:46:55.335Z,8.70
2018-04-12T03:49:23.759Z,8.70
2018-04-12T03:51:51.807Z,8.70
2018-04-12T03:54:19.486Z,9.00
2018-04-12T03:56:47.941Z,8.70
2018-04-12T03:59:15.643Z,8.70
2018-04-12T04:01:44.038Z,8.70
2018-04-12T04:04:12.487Z,8.70
2018-04-12T04:06:40.206Z,8.60
2018-04-12T04:09:08.972Z,8.60
2018-04-12T04:11:36.664Z,8.70
2018-04-12T04:14:05.145Z,8.60
2018-04-12T04:19:48.507Z,8.60
2018-04-12T04:22:17.015Z,8.60
2018-04-12T04:24:57.667Z,8.50
2018-04-12T04:27:26.175Z,8.50
2018-04-12T04:30:06.667Z,8.40
2018-04-12T04:32:34.357Z,8.60
2018-04-12T04:35:13.479Z,8.50
2018-04-12T04:37:41.157Z,8.40
2018-04-12T04:40:09.624Z,8.50
2018-04-12T04:42:37.706Z,8.00
2018-04-12T04:45:07.275Z,8.50
2018-04-12T04:47:35.002Z,8.40
2018-04-12T04:50:02.820Z,8.20
2018-04-12T04:52:30.925Z,8.30
2018-04-12T04:55:01.961Z,8.20
2018-04-12T04:57:29.705Z,8.40
2018-04-12T04:59:58.326Z,8.30
2018-04-12T05:02:26.124Z,8.30
2018-04-12T05:05:01.656Z,8.30
2018-04-12T05:07:29.377Z,8.30
2018-04-12T05:09:58.009Z,8.20
2018-04-12T05:12:26.154Z,8.20
2018-04-12T05:15:01.817Z,8.30
2018-04-12T05:17:29.568Z,8.40
2018-04-12T05:19:57.812Z,8.60
2018-04-12T05:22:26.308Z,8.20
2018-04-12T05:24:59.420Z,9.70
2018-04-12T05:27:27.862Z,8.10
2018-04-12T05:30:02.745Z,8.10
2018-04-12T05:32:30.424Z,8.10
2018-04-12T05:35:04.157Z,8.20
2018-04-12T05:37:31.848Z,7.80
2018-04-12T05:40:00.719Z,7.40
2018-04-12T05:42:29.166Z,8.10
2018-04-12T05:44:56.932Z,8.50
2018-04-12T05:47:24.637Z,7.80
2018-04-12T05:49:52.452Z,8.10
2018-04-12T05:52:20.207Z,8.30
2018-04-12T05:54:52.426Z,8.10
2018-04-12T05:57:20.918Z,8.10
2018-04-12T05:59:54.025Z,8.00
2018-04-12T06:02:22.833Z,8.10
2018-04-12T06:04:57.132Z,7.80
2018-04-12T06:07:24.856Z,7.90
2018-04-12T06:09:53.460Z,8.00
2018-04-12T06:12:21.181Z,7.90
2018-04-12T06:17:19.033Z,8.10
2018-04-12T06:19:46.888Z,7.90
2018-04-12T06:22:14.572Z,8.20
2018-04-12T06:24:42.419Z,7.90
2018-04-12T06:27:10.536Z,8.10
2018-04-12T06:29:38.717Z,7.90
2018-04-12T06:32:07.909Z,8.00
2018-04-12T06:34:36.508Z,8.00
2018-04-12T06:37:08.492Z,8.00
2018-04-12T06:39:36.750Z,8.40
2018-04-12T06:42:05.285Z,8.00
2018-04-12T06:44:32.931Z,7.90
2018-04-12T06:47:02.455Z,8.00
2018-04-12T06:49:30.240Z,7.90
2018-04-12T06:51:59.504Z,8.10
2018-04-12T06:54:27.180Z,8.20
2018-04-12T06:56:54.976Z,7.80
2018-04-12T06:59:22.722Z,7.90
2018-04-12T07:01:53.663Z,8.20
2018-04-12T07:04:22.201Z,8.20
2018-04-12T07:06:50.072Z,8.10
2018-04-12T07:09:17.753Z,8.40
2018-04-12T07:11:45.686Z,8.00
2018-04-12T07:16:45.141Z,8.30
2018-04-12T07:19:14.519Z,8.30
2018-04-12T07:21:44.869Z,8.40
2018-04-12T07:24:12.509Z,8.50
2018-04-12T07:26:44.416Z,8.20
2018-04-12T07:29:12.177Z,8.10
2018-04-12T07:31:40.764Z,8.50
2018-04-12T07:36:38.097Z,8.60
2018-04-12T07:39:06.269Z,8.70
2018-04-12T07:41:34.065Z,8.90
2018-04-12T07:44:01.820Z,8.80
2018-04-12T07:46:29.775Z,8.70
2018-04-12T07:48:57.474Z,8.70
2018-04-12T07:51:25.267Z,8.70
2018-04-12T07:53:54.021Z,8.70
2018-04-12T07:56:24.287Z,8.70
2018-04-12T07:58:52.451Z,8.20
2018-04-12T08:01:21.161Z,8.60
2018-04-12T08:03:48.871Z,8.90
2018-04-12T08:06:29.347Z,8.70
2018-04-12T08:08:57.826Z,8.90
2018-04-12T08:11:29.650Z,8.90
2018-04-12T08:13:57.380Z,8.80
2018-04-12T08:16:29.556Z,9.00
2018-04-12T08:18:57.272Z,9.00
2018-04-12T08:21:32.817Z,8.90
2018-04-12T08:24:01.308Z,8.90
2018-04-12T08:26:42.948Z,8.90
2018-04-12T08:29:10.626Z,8.90
2018-04-12T08:31:44.213Z,8.70
2018-04-12T08:34:11.859Z,9.00
2018-04-12T08:36:43.165Z,8.70
2018-04-12T08:39:11.595Z,8.90
2018-04-12T08:41:40.331Z,9.00
2018-04-12T08:44:08.829Z,9.10
2018-04-12T08:46:36.935Z,9.00
2018-04-12T08:49:05.398Z,9.10
2018-04-12T08:51:33.189Z,9.50
2018-04-12T08:54:01.596Z,9.30
2018-04-12T08:56:30.205Z,9.30
2018-04-12T08:58:58.616Z,9.40
2018-04-12T09:01:29.814Z,9.60
2018-04-12T09:03:58.267Z,9.40
2018-04-12T09:06:27.451Z,9.50
2018-04-12T09:08:55.530Z,9.30
2018-04-12T09:11:24.079Z,9.60
2018-04-12T09:13:52.249Z,10.00
2018-04-12T09:16:21.009Z,9.80
2018-04-12T09:18:49.092Z,9.80
2018-04-12T09:21:17.258Z,10.00
2018-04-12T09:23:45.726Z,9.80
2018-04-12T09:26:17.749Z,10.00
2018-04-12T09:28:45.436Z,9.90
2018-04-12T09:31:14.187Z,10.20
2018-04-12T09:33:42.735Z,10.30
2018-04-12T09:36:15.018Z,10.40
2018-04-12T09:38:42.771Z,10.40
2018-04-12T09:41:19.380Z,10.50
2018-04-12T09:43:47.092Z,10.00
2018-04-12T09:46:15.645Z,10.50
2018-04-12T09:48:44.155Z,10.50
2018-04-12T09:51:19.453Z,10.60
2018-04-12T09:53:47.485Z,10.40
2018-04-12T09:56:22.959Z,10.80
2018-04-12T09:58:50.677Z,10.40
2018-04-12T10:01:19.286Z,10.80
2018-04-12T10:03:47.051Z,10.60
2018-04-12T10:06:20.785Z,11.30
2018-04-12T10:09:17.869Z,11.00
2018-04-12T10:11:45.613Z,11.30
2018-04-12T10:14:17.271Z,10.90
2018-04-12T10:16:44.998Z,10.70
2018-04-12T10:19:18.615Z,11.30
2018-04-12T10:21:46.361Z,10.80
2018-04-12T10:24:21.023Z,10.90
2018-04-12T10:26:49.512Z,10.90
2018-04-12T10:29:18.269Z,10.90
2018-04-12T10:31:46.014Z,11.00
2018-04-12T10:34:19.486Z,11.10
2018-04-12T10:36:47.941Z,11.10
2018-04-12T10:39:15.686Z,11.40
2018-04-12T10:41:43.480Z,11.60
2018-04-12T10:44:22.422Z,11.10
2018-04-12T10:46:51.273Z,11.20
2018-04-12T10:49:19.008Z,11.10
2018-04-12T10:51:47.114Z,10.90
2018-04-12T10:54:16.617Z,11.30
2018-04-12T10:56:45.477Z,11.30
2018-04-12T10:59:17.130Z,11.10
2018-04-12T11:01:44.841Z,11.30
2018-04-12T11:04:18.669Z,11.30
2018-04-12T11:06:46.423Z,11.80
2018-04-12T11:09:23.596Z,11.40
2018-04-12T11:11:51.276Z,11.50
2018-04-12T11:14:19.810Z,11.50
2018-04-12T11:16:47.509Z,11.30
2018-04-12T11:19:16.507Z,11.50
2018-04-12T11:21:45.147Z,11.50
2018-04-12T11:24:14.962Z,11.40
2018-04-12T11:26:43.791Z,11.70
2018-04-12T11:29:11.970Z,11.70
2018-04-12T11:31:40.523Z,11.70
2018-04-12T11:34:12.973Z,11.80
2018-04-12T11:36:41.061Z,12.70
2018-04-12T11:39:08.876Z,12.20
2018-04-12T11:41:36.588Z,12.20
2018-04-12T11:44:10.447Z,11.70
2018-04-12T11:46:38.533Z,11.90
2018-04-12T11:49:09.736Z,12.10
2018-04-12T11:51:37.425Z,12.40
2018-04-12T11:54:10.707Z,12.20
2018-04-12T11:56:39.182Z,12.20
2018-04-12T11:59:07.757Z,12.20
2018-04-12T12:01:35.484Z,12.20
2018-04-12T12:04:05.216Z,12.20
2018-04-12T12:06:32.964Z,12.20
2018-04-12T12:09:01.177Z,12.90
2018-04-12T12:11:28.929Z,13.20
2018-04-12T12:14:03.787Z,13.40
2018-04-12T12:16:31.443Z,13.70
2018-04-12T12:18:59.144Z,13.80
2018-04-12T12:21:27.677Z,14.00
2018-04-12T12:26:28.183Z,14.00
2018-04-12T12:28:55.977Z,15.10
2018-04-12T12:31:25.186Z,14.90
2018-04-12T12:34:08.121Z,15.10
2018-04-12T12:36:35.867Z,14.90
2018-04-12T12:39:05.467Z,15.40
2018-04-12T12:41:34.382Z,15.60
2018-04-12T12:44:02.171Z,15.70
2018-04-12T12:46:31.905Z,16.30
2018-04-12T12:49:00.003Z,16.50
2018-04-12T12:51:31.887Z,16.50
2018-04-12T12:53:59.994Z,16.80
2018-04-12T12:56:27.663Z,16.70
2018-04-12T12:58:55.382Z,17.20
2018-04-12T13:01:29.649Z,16.40
2018-04-12T13:03:57.398Z,16.50
2018-04-12T13:06:27.129Z,16.50
2018-04-12T13:08:55.616Z,16.50
2018-04-12T13:11:23.374Z,17.10
2018-04-12T13:13:51.403Z,17.50
2018-04-12T13:16:19.086Z,17.90
2018-04-12T13:18:46.748Z,18.70
2018-04-12T13:21:15.454Z,18.30
2018-04-12T13:23:43.193Z,18.30
2018-04-12T13:26:11.745Z,18.40
2018-04-12T13:28:39.483Z,18.00
2018-04-12T13:31:09.429Z,18.70
2018-04-12T13:33:37.165Z,18.90
2018-04-12T13:36:06.541Z,19.00
2018-04-12T13:38:34.206Z,19.20
2018-04-12T13:41:04.969Z,19.40
2018-04-12T13:43:33.083Z,19.10
2018-04-12T13:46:01.609Z,19.50
2018-04-12T13:48:30.113Z,19.50
2018-04-12T13:51:00.659Z,19.50
2018-04-12T13:53:28.380Z,19.60
2018-04-12T13:56:00.316Z,19.50
2018-04-12T13:58:28.023Z,19.50
2018-04-12T14:03:49.618Z,19.80
2018-04-12T14:06:17.356Z,20.40
2018-04-12T14:08:45.115Z,20.60
2018-04-12T14:11:12.858Z,19.50
2018-04-12T14:13:43.401Z,19.90
2018-04-12T14:16:11.128Z,20.40
2018-04-12T14:18:38.874Z,20.30
2018-04-12T14:21:06.565Z,21.10
2018-04-12T14:23:35.074Z,20.70
2018-04-12T14:26:02.769Z,20.30
2018-04-12T14:28:30.416Z,20.20
2018-04-12T14:30:58.142Z,20.60
2018-04-12T14:33:27.430Z,20.50
2018-04-12T14:35:55.905Z,20.20
2018-04-12T14:38:29.450Z,20.00
2018-04-12T14:40:57.146Z,20.30
2018-04-12T14:43:39.709Z,19.70
2018-04-12T14:46:07.384Z,19.20
2018-04-12T14:48:36.114Z,19.20
2018-04-12T14:51:03.800Z,19.50
2018-04-12T14:53:33.298Z,19.60
2018-04-12T14:56:01.794Z,19.50
2018-04-12T14:58:31.236Z,19.40
2018-04-12T15:00:58.884Z,19.50
2018-04-12T15:03:26.609Z,19.10
2018-04-12T15:05:54.709Z,19.20
2018-04-12T15:08:24.855Z,19.30
2018-04-12T15:10:52.591Z,19.00
2018-04-12T15:13:33.094Z,19.50
2018-04-12T15:16:00.830Z,20.30
2018-04-12T15:18:47.133Z,20.40
2018-04-12T15:21:14.768Z,20.50
2018-04-12T15:23:48.826Z,20.30
2018-04-12T15:26:16.507Z,20.50
2018-04-12T15:31:47.958Z,20.20
2018-04-12T15:34:16.177Z,19.10
2018-04-12T15:36:52.358Z,20.00
2018-04-12T15:39:20.450Z,19.60
2018-04-12T15:42:04.949Z,19.50
2018-04-12T15:44:33.496Z,19.30
2018-04-12T15:47:02.336Z,19.20
2018-04-12T15:49:30.794Z,19.70
2018-04-12T15:52:07.077Z,19.70
2018-04-12T15:54:35.522Z,20.30
2018-04-12T15:57:03.702Z,20.40
2018-04-12T15:59:32.545Z,20.30
2018-04-12T16:02:01.779Z,20.20
2018-04-12T16:04:29.874Z,20.10
2018-04-12T16:07:05.042Z,19.50
2018-04-12T16:09:32.712Z,19.60
2018-04-12T16:12:04.089Z,18.90
2018-04-12T16:14:32.117Z,19.20
2018-04-12T16:17:00.385Z,19.20
2018-04-12T16:19:28.511Z,19.40
2018-04-12T16:21:56.336Z,19.60
2018-04-12T16:24:24.055Z,19.30
2018-04-12T16:26:51.837Z,19.40
2018-04-12T16:29:19.504Z,19.10
2018-04-12T16:31:54.016Z,19.10
2018-04-12T16:34:21.689Z,19.10
2018-04-12T16:37:00.276Z,18.90
2018-04-12T16:39:28.317Z,19.10
2018-04-12T16:41:56.141Z,18.90
2018-04-12T16:44:24.633Z,18.80
2018-04-12T16:46:56.724Z,18.80
2018-04-12T16:49:24.494Z,18.80
2018-04-12T16:51:58.491Z,18.60
2018-04-12T16:54:26.501Z,18.30
2018-04-12T16:56:57.936Z,18.40
2018-04-12T16:59:25.702Z,19.10
2018-04-12T17:01:54.701Z,18.40
2018-04-12T17:04:22.380Z,18.90
2018-04-12T17:06:50.212Z,19.10
2018-04-12T17:09:17.928Z,18.40
2018-04-12T17:11:45.725Z,19.10
2018-04-12T17:14:13.491Z,18.70
2018-04-12T17:16:41.330Z,19.00
2018-04-12T17:19:09.864Z,18.60
2018-04-12T17:21:37.749Z,18.50
2018-04-12T17:24:05.480Z,18.30
2018-04-12T17:26:36.773Z,18.50
2018-04-12T17:29:04.436Z,17.60
2018-04-12T17:31:39.356Z,18.50
2018-04-12T17:34:07.038Z,18.30
2018-04-12T17:36:41.697Z,18.00
2018-04-12T17:39:09.410Z,17.60
2018-04-12T17:41:45.349Z,17.70
2018-04-12T17:44:12.998Z,17.50
2018-04-12T17:46:46.794Z,17.30
2018-04-12T17:49:14.491Z,17.40
2018-04-12T17:51:48.065Z,17.30
2018-04-12T17:54:15.796Z,17.40
2018-04-12T17:56:45.576Z,17.10
2018-04-12T17:59:13.379Z,17.20
2018-04-12T18:01:41.214Z,16.90
2018-04-12T18:04:09.294Z,16.60
2018-04-12T18:06:37.526Z,17.00
2018-04-12T18:09:05.943Z,17.00
2018-04-12T18:11:34.783Z,16.70
2018-04-12T18:14:02.513Z,17.00
2018-04-12T18:16:34.813Z,16.60
2018-04-12T18:19:02.513Z,16.70
2018-04-12T18:21:30.246Z,16.10
2018-04-12T18:23:59.083Z,16.40
2018-04-12T18:26:28.663Z,16.30
2018-04-12T18:28:56.753Z,16.30
2018-04-12T18:31:27.787Z,16.20
2018-04-12T18:33:56.014Z,15.50
2018-04-12T18:36:23.781Z,16.10
2018-04-12T18:38:51.497Z,16.10
2018-04-12T18:41:24.028Z,16.00
2018-04-12T18:43:52.941Z,16.00
2018-04-12T18:46:20.748Z,16.10
2018-04-12T18:48:49.892Z,15.90
2018-04-12T18:51:21.092Z,15.80
2018-04-12T18:53:49.522Z,15.80
2018-04-12T18:56:17.339Z,15.60
2018-04-12T18:58:45.446Z,15.80
2018-04-12T19:01:15.236Z,15.60
2018-04-12T19:03:42.930Z,15.70
2018-04-12T19:06:11.751Z,15.60
2018-04-12T19:08:40.337Z,15.70
2018-04-12T19:11:13.404Z,15.70
2018-04-12T19:13:41.118Z,15.30
2018-04-12T19:16:08.961Z,15.50
2018-04-12T19:18:38.138Z,15.60
2018-04-12T19:21:09.982Z,15.60
2018-04-12T19:23:38.055Z,15.80
2018-04-12T19:26:05.828Z,15.30
2018-04-12T19:28:33.506Z,15.80
2018-04-12T19:31:05.480Z,15.50
2018-04-12T19:33:34.338Z,15.60
2018-04-12T19:36:02.207Z,15.70
2018-04-12T19:38:29.912Z,15.60
2018-04-12T19:43:27.457Z,15.50
2018-04-12T19:45:57.239Z,15.60
2018-04-12T19:48:24.901Z,15.50
2018-04-12T19:50:57.847Z,15.40
2018-04-12T19:53:25.526Z,15.50
2018-04-12T19:55:54.641Z,15.30
2018-04-12T19:58:22.374Z,14.80
2018-04-12T20:00:50.065Z,15.10
2018-04-12T20:03:17.776Z,15.20
2018-04-12T20:05:49.351Z,15.20
2018-04-12T20:08:17.381Z,14.90
2018-04-12T20:10:46.014Z,15.30
2018-04-12T20:13:13.765Z,14.70
2018-04-12T20:15:52.008Z,14.90
2018-04-12T20:18:19.734Z,15.10
2018-04-12T20:20:54.448Z,14.30
2018-04-12T20:23:22.898Z,14.70
2018-04-12T20:25:55.128Z,14.70
2018-04-12T20:28:23.965Z,14.60
2018-04-12T20:30:52.037Z,14.60
2018-04-12T20:33:19.737Z,14.40
2018-04-12T20:35:51.719Z,14.50
2018-04-12T20:38:19.473Z,14.30
2018-04-12T20:41:05.765Z,14.30
2018-04-12T20:43:33.830Z,14.80
2018-04-12T20:46:03.489Z,14.30
2018-04-12T20:48:31.146Z,14.00
2018-04-12T20:51:05.379Z,14.40
2018-04-12T20:53:33.070Z,14.20
2018-04-12T20:56:00.803Z,14.10
2018-04-12T20:58:28.510Z,14.80
2018-04-12T21:01:00.580Z,14.10
2018-04-12T21:03:28.273Z,14.10
2018-04-12T21:05:56.966Z,14.20
2018-04-12T21:08:25.048Z,14.00
2018-04-12T21:11:03.979Z,14.00
2018-04-12T21:13:31.683Z,13.80
2018-04-12T21:15:59.425Z,14.00
2018-04-12T21:18:27.109Z,14.00
2018-04-12T21:20:55.824Z,14.00
2018-04-12T21:23:24.258Z,14.00
2018-04-12T21:25:59.835Z,13.30
2018-04-12T21:28:27.537Z,13.80
2018-04-12T21:30:59.335Z,14.00
2018-04-12T21:33:27.774Z,14.20
2018-04-12T21:35:56.455Z,14.30
2018-04-12T21:38:24.114Z,14.20
2018-04-12T21:40:52.202Z,14.30
2018-04-12T21:43:19.919Z,14.40
2018-04-12T21:46:02.097Z,14.20
2018-04-12T21:48:30.170Z,14.50
2018-04-12T21:51:11.436Z,14.40
2018-04-12T21:53:39.905Z,14.40
2018-04-12T21:56:09.418Z,14.40
2018-04-12T21:58:37.896Z,14.40
2018-04-12T22:01:07.454Z,14.40
2018-04-12T22:03:35.590Z,14.30
2018-04-12T22:06:05.093Z,14.30
2018-04-12T22:08:32.728Z,14.30
2018-04-12T22:11:02.881Z,14.20
2018-04-12T22:13:30.999Z,14.20
2018-04-12T22:16:16.075Z,13.80
2018-04-12T22:18:44.160Z,13.80
2018-04-12T22:21:17.209Z,14.10
2018-04-12T22:23:44.942Z,13.90
2018-04-12T22:26:13.594Z,14.20
2018-04-12T22:28:41.242Z,14.20
2018-04-12T22:31:23.849Z,13.80
2018-04-12T22:33:53.004Z,14.10
2018-04-12T22:36:27.604Z,14.40
2018-04-12T22:38:56.034Z,14.20
2018-04-12T22:41:47.276Z,13.90
2018-04-12T22:44:14.957Z,14.00
2018-04-12T22:46:43.397Z,14.20
2018-04-12T22:49:11.901Z,14.20
2018-04-12T22:51:46.945Z,14.30
2018-04-12T22:54:15.041Z,14.50
2018-04-12T22:56:42.797Z,14.30
2018-04-12T22:59:11.209Z,14.30
2018-04-12T23:01:39.667Z,14.30
2018-04-12T23:04:07.433Z,14.60
2018-04-12T23:06:37.117Z,14.20
2018-04-12T23:09:06.215Z,14.50
2018-04-12T23:11:37.318Z,14.50
2018-04-12T23:14:05.062Z,14.70
2018-04-12T23:16:35.113Z,14.60
2018-04-12T23:19:03.241Z,14.60
2018-04-12T23:21:31.998Z,14.70
2018-04-12T23:23:59.702Z,14.80
2018-04-12T23:26:34.756Z,14.90
2018-04-12T23:29:03.245Z,15.00
2018-04-12T23:31:32.400Z,15.00
2018-04-12T23:34:00.084Z,15.00
2018-04-12T23:36:39.517Z,14.90
2018-04-12T23:39:07.616Z,14.80
2018-04-12T23:41:36.728Z,14.80
2018-04-12T23:44:04.398Z,14.70
2018-04-12T23:46:42.915Z,14.80
2018-04-12T23:49:11.401Z,14.80
2018-04-12T23:51:40.877Z,14.90
2018-04-12T23:54:08.566Z,14.80
2018-04-12T23:56:37.464Z,14.90
2018-04-12T23:59:05.544Z,14.90
